Aviation Digital Data Service (ADDS)

Output produced by METARs form (0436 UTC 19 April 2015)
found at http://aviationweather.gov/adds/metars/
 
KFAY 190210Z 1902/1924 15004KT P6SM OVC090 
     TEMPO 1902/1904 12003KT P6SM -SHRA OVC080 
     FM191000 07008KT P6SM OVC025 
     FM191500 10010G20KT P6SM OVC015 
     FM191800 12012G20KT 5SM SHRA BR OVC010